sensor_id;sensor_type;location;lat;lon;timestamp;pressure;altitude;pressure_sealevel;temperature;humidity
65384;BME280;51986;52.788;41.368;2022-09-23T00:02:12;98845.84;;;10.91;64.43
65384;BME280;51986;52.788;41.368;2022-09-23T00:04:39;98839.94;;;10.83;64.83
65384;BME280;51986;52.788;41.368;2022-09-23T00:07:05;98849.28;;;10.88;65.26
65384;BME280;51986;52.788;41.368;2022-09-23T00:09:32;98826.06;;;10.79;64.15
65384;BME280;51986;52.788;41.368;2022-09-23T00:11:59;98848.56;;;10.64;64.69
65384;BME280;51986;52.788;41.368;2022-09-23T00:14:29;98839.09;;;10.67;64.73
65384;BME280;51986;52.788;41.368;2022-09-23T00:16:56;98833.19;;;10.59;65.97
65384;BME280;51986;52.788;41.368;2022-09-23T00:19:23;98843.75;;;10.59;66.02
65384;BME280;51986;52.788;41.368;2022-09-23T00:21:50;98835.03;;;10.62;65.98
65384;BME280;51986;52.788;41.368;2022-09-23T00:24:16;98818.34;;;10.69;66.36
65384;BME280;51986;52.788;41.368;2022-09-23T00:26:43;98846.19;;;10.70;64.73
65384;BME280;51986;52.788;41.368;2022-09-23T00:29:10;98847.91;;;10.56;65.09
65384;BME280;51986;52.788;41.368;2022-09-23T00:31:37;98844.59;;;10.52;64.30
65384;BME280;51986;52.788;41.368;2022-09-23T00:34:05;98845.06;;;10.47;64.33
65384;BME280;51986;52.788;41.368;2022-09-23T00:36:32;98836.13;;;10.41;64.74
65384;BME280;51986;52.788;41.368;2022-09-23T00:38:59;98855.97;;;10.49;64.79
65384;BME280;51986;52.788;41.368;2022-09-23T00:41:26;98851.31;;;10.57;64.63
65384;BME280;51986;52.788;41.368;2022-09-23T00:43:56;98872.41;;;10.57;64.08
65384;BME280;51986;52.788;41.368;2022-09-23T00:46:31;98846.44;;;10.55;64.63
65384;BME280;51986;52.788;41.368;2022-09-23T00:49:24;98859.44;;;10.66;64.25
65384;BME280;51986;52.788;41.368;2022-09-23T00:51:57;98859.22;;;10.57;64.89
65384;BME280;51986;52.788;41.368;2022-09-23T00:54:26;98825.81;;;10.50;64.03
65384;BME280;51986;52.788;41.368;2022-09-23T00:56:56;98843.38;;;10.57;64.34
65384;BME280;51986;52.788;41.368;2022-09-23T00:59:27;98817.78;;;10.34;65.47
65384;BME280;51986;52.788;41.368;2022-09-23T01:01:56;98847.06;;;10.40;64.67
65384;BME280;51986;52.788;41.368;2022-09-23T01:04:25;98815.16;;;10.34;63.87
65384;BME280;51986;52.788;41.368;2022-09-23T01:06:52;98818.94;;;10.29;65.38
65384;BME280;51986;52.788;41.368;2022-09-23T01:09:20;98830.25;;;10.30;64.47
65384;BME280;51986;52.788;41.368;2022-09-23T01:12:03;98817.84;;;10.27;64.84
65384;BME280;51986;52.788;41.368;2022-09-23T01:28:28;98790.78;;;9.99;69.50
65384;BME280;51986;52.788;41.368;2022-09-23T01:36:37;98797.94;;;9.99;70.16
65384;BME280;51986;52.788;41.368;2022-09-23T01:39:14;98804.19;;;10.09;69.92
65384;BME280;51986;52.788;41.368;2022-09-23T01:42:05;98798.88;;;10.12;69.35
65384;BME280;51986;52.788;41.368;2022-09-23T01:44:45;98788.38;;;10.09;69.65
65384;BME280;51986;52.788;41.368;2022-09-23T01:47:27;98783.50;;;10.34;68.57
65384;BME280;51986;52.788;41.368;2022-09-23T01:50:02;98799.59;;;10.40;68.94
65384;BME280;51986;52.788;41.368;2022-09-23T01:52:40;98789.84;;;10.37;70.65
65384;BME280;51986;52.788;41.368;2022-09-23T01:55:15;98790.13;;;10.42;70.68
65384;BME280;51986;52.788;41.368;2022-09-23T01:58:02;98799.16;;;10.45;70.59
65384;BME280;51986;52.788;41.368;2022-09-23T02:00:34;98810.75;;;10.24;71.24
65384;BME280;51986;52.788;41.368;2022-09-23T02:03:43;98819.16;;;10.15;72.72
65384;BME280;51986;52.788;41.368;2022-09-23T02:06:20;98829.09;;;10.04;72.52
65384;BME280;51986;52.788;41.368;2022-09-23T02:08:58;98818.72;;;9.93;72.93
65384;BME280;51986;52.788;41.368;2022-09-23T02:11:27;98829.06;;;9.80;73.33
65384;BME280;51986;52.788;41.368;2022-09-23T02:13:59;98814.38;;;9.79;73.41
65384;BME280;51986;52.788;41.368;2022-09-23T02:16:38;98829.59;;;9.68;73.89
65384;BME280;51986;52.788;41.368;2022-09-23T02:19:17;98825.59;;;9.57;74.48
65384;BME280;51986;52.788;41.368;2022-09-23T02:22:06;98821.28;;;9.70;73.98
65384;BME280;51986;52.788;41.368;2022-09-23T02:24:36;98811.56;;;9.67;73.73
65384;BME280;51986;52.788;41.368;2022-09-23T02:32:20;98813.69;;;9.75;72.75
65384;BME280;51986;52.788;41.368;2022-09-23T02:43:30;98838.31;;;9.31;73.62
65384;BME280;51986;52.788;41.368;2022-09-23T02:45:58;98818.63;;;9.09;74.85
65384;BME280;51986;52.788;41.368;2022-09-23T02:48:31;98797.47;;;8.85;74.90
65384;BME280;51986;52.788;41.368;2022-09-23T02:50:59;98817.56;;;8.61;76.26
65384;BME280;51986;52.788;41.368;2022-09-23T02:53:27;98825.50;;;8.99;74.82
65384;BME280;51986;52.788;41.368;2022-09-23T02:55:55;98827.78;;;8.97;75.22
65384;BME280;51986;52.788;41.368;2022-09-23T02:58:22;98814.22;;;8.98;75.29
65384;BME280;51986;52.788;41.368;2022-09-23T03:03:45;98813.59;;;8.87;76.04
65384;BME280;51986;52.788;41.368;2022-09-23T03:06:34;98816.06;;;9.05;75.56
65384;BME280;51986;52.788;41.368;2022-09-23T03:09:11;98818.53;;;8.82;75.99
65384;BME280;51986;52.788;41.368;2022-09-23T03:11:42;98805.06;;;8.76;76.46
65384;BME280;51986;52.788;41.368;2022-09-23T03:17:13;98803.19;;;8.76;76.62
65384;BME280;51986;52.788;41.368;2022-09-23T03:19:54;98808.69;;;8.89;76.89
65384;BME280;51986;52.788;41.368;2022-09-23T03:22:36;98813.69;;;8.80;76.27
65384;BME280;51986;52.788;41.368;2022-09-23T03:25:18;98820.38;;;8.85;76.97
65384;BME280;51986;52.788;41.368;2022-09-23T03:27:46;98819.19;;;8.89;77.45
65384;BME280;51986;52.788;41.368;2022-09-23T03:30:13;98785.53;;;8.70;77.82
65384;BME280;51986;52.788;41.368;2022-09-23T03:32:43;98771.69;;;9.03;76.82
65384;BME280;51986;52.788;41.368;2022-09-23T03:35:12;98788.47;;;9.17;76.56
65384;BME280;51986;52.788;41.368;2022-09-23T03:38:07;98806.72;;;9.31;76.74
65384;BME280;51986;52.788;41.368;2022-09-23T03:40:39;98791.66;;;9.35;76.10
65384;BME280;51986;52.788;41.368;2022-09-23T03:43:10;98802.00;;;9.49;76.12
65384;BME280;51986;52.788;41.368;2022-09-23T03:45:37;98794.88;;;9.46;76.25
65384;BME280;51986;52.788;41.368;2022-09-23T03:50:47;98788.06;;;9.52;76.72
65384;BME280;51986;52.788;41.368;2022-09-23T03:53:14;98773.56;;;9.68;76.13
65384;BME280;51986;52.788;41.368;2022-09-23T03:55:41;98783.97;;;9.48;76.94
65384;BME280;51986;52.788;41.368;2022-09-23T03:58:07;98778.00;;;9.71;76.27
65384;BME280;51986;52.788;41.368;2022-09-23T04:00:34;98784.22;;;9.84;76.28
65384;BME280;51986;52.788;41.368;2022-09-23T04:03:01;98773.44;;;9.75;75.99
65384;BME280;51986;52.788;41.368;2022-09-23T04:05:28;98770.84;;;9.98;75.93
65384;BME280;51986;52.788;41.368;2022-09-23T04:07:55;98763.44;;;9.90;76.05
65384;BME280;51986;52.788;41.368;2022-09-23T04:10:22;98737.44;;;9.68;76.96
65384;BME280;51986;52.788;41.368;2022-09-23T04:12:49;98739.22;;;9.98;76.21
65384;BME280;51986;52.788;41.368;2022-09-23T04:15:16;98754.00;;;9.92;76.66
65384;BME280;51986;52.788;41.368;2022-09-23T04:17:43;98749.66;;;9.82;76.94
65384;BME280;51986;52.788;41.368;2022-09-23T04:20:09;98764.06;;;9.74;77.45
65384;BME280;51986;52.788;41.368;2022-09-23T04:22:36;98729.97;;;9.90;77.09
65384;BME280;51986;52.788;41.368;2022-09-23T04:25:03;98761.91;;;9.92;78.23
65384;BME280;51986;52.788;41.368;2022-09-23T04:27:30;98741.31;;;10.11;77.06
65384;BME280;51986;52.788;41.368;2022-09-23T04:30:03;98760.97;;;10.29;76.79
65384;BME280;51986;52.788;41.368;2022-09-23T04:32:30;98772.97;;;10.34;76.87
65384;BME280;51986;52.788;41.368;2022-09-23T04:34:57;98763.25;;;10.27;77.30
65384;BME280;51986;52.788;41.368;2022-09-23T04:37:23;98748.63;;;10.46;77.25
65384;BME280;51986;52.788;41.368;2022-09-23T04:39:53;98773.28;;;10.60;76.69
65384;BME280;51986;52.788;41.368;2022-09-23T04:42:19;98762.31;;;10.61;76.87
65384;BME280;51986;52.788;41.368;2022-09-23T04:44:46;98762.16;;;10.92;75.95
65384;BME280;51986;52.788;41.368;2022-09-23T04:47:13;98775.25;;;10.95;75.71
65384;BME280;51986;52.788;41.368;2022-09-23T04:49:40;98786.75;;;10.85;76.83
65384;BME280;51986;52.788;41.368;2022-09-23T04:52:07;98785.06;;;10.95;76.65
65384;BME280;51986;52.788;41.368;2022-09-23T04:54:34;98774.41;;;10.82;77.06
65384;BME280;51986;52.788;41.368;2022-09-23T04:57:00;98764.53;;;10.86;77.93
65384;BME280;51986;52.788;41.368;2022-09-23T04:59:53;98759.72;;;11.01;76.96
65384;BME280;51986;52.788;41.368;2022-09-23T05:02:20;98754.16;;;10.95;77.66
65384;BME280;51986;52.788;41.368;2022-09-23T05:04:47;98767.75;;;10.94;77.61
65384;BME280;51986;52.788;41.368;2022-09-23T05:07:15;98748.53;;;10.93;78.12
65384;BME280;51986;52.788;41.368;2022-09-23T05:09:42;98741.56;;;11.03;77.94
65384;BME280;51986;52.788;41.368;2022-09-23T05:12:08;98766.75;;;10.88;78.20
65384;BME280;51986;52.788;41.368;2022-09-23T05:14:35;98782.03;;;11.16;77.60
65384;BME280;51986;52.788;41.368;2022-09-23T05:17:02;98748.91;;;11.31;77.11
65384;BME280;51986;52.788;41.368;2022-09-23T05:19:29;98753.94;;;11.26;77.66
65384;BME280;51986;52.788;41.368;2022-09-23T05:22:15;98737.50;;;11.18;77.81
65384;BME280;51986;52.788;41.368;2022-09-23T05:24:43;98753.25;;;11.22;78.24
65384;BME280;51986;52.788;41.368;2022-09-23T05:27:13;98761.22;;;11.38;77.59
65384;BME280;51986;52.788;41.368;2022-09-23T05:29:39;98745.84;;;11.33;78.06
65384;BME280;51986;52.788;41.368;2022-09-23T05:32:06;98734.84;;;11.18;77.95
65384;BME280;51986;52.788;41.368;2022-09-23T05:34:33;98747.38;;;11.14;78.22
65384;BME280;51986;52.788;41.368;2022-09-23T05:37:00;98739.75;;;11.20;78.85
65384;BME280;51986;52.788;41.368;2022-09-23T05:39:27;98742.91;;;11.31;78.31
65384;BME280;51986;52.788;41.368;2022-09-23T05:41:54;98771.28;;;11.43;78.00
65384;BME280;51986;52.788;41.368;2022-09-23T05:44:21;98763.59;;;11.69;77.44
65384;BME280;51986;52.788;41.368;2022-09-23T05:46:47;98731.78;;;11.40;78.12
65384;BME280;51986;52.788;41.368;2022-09-23T05:49:14;98753.66;;;11.40;78.23
65384;BME280;51986;52.788;41.368;2022-09-23T05:51:41;98746.34;;;11.64;77.63
65384;BME280;51986;52.788;41.368;2022-09-23T05:54:08;98752.00;;;11.82;77.03
65384;BME280;51986;52.788;41.368;2022-09-23T05:56:35;98755.03;;;11.81;76.38
65384;BME280;51986;52.788;41.368;2022-09-23T05:59:03;98757.84;;;11.74;77.22
65384;BME280;51986;52.788;41.368;2022-09-23T06:01:33;98748.75;;;11.91;76.99
65384;BME280;51986;52.788;41.368;2022-09-23T06:04:02;98727.63;;;11.75;77.11
65384;BME280;51986;52.788;41.368;2022-09-23T06:06:35;98736.28;;;12.08;76.16
65384;BME280;51986;52.788;41.368;2022-09-23T06:09:03;98767.59;;;12.26;76.18
65384;BME280;51986;52.788;41.368;2022-09-23T06:11:31;98735.59;;;12.36;75.58
65384;BME280;51986;52.788;41.368;2022-09-23T06:13:59;98745.75;;;12.38;75.18
65384;BME280;51986;52.788;41.368;2022-09-23T06:16:32;98774.47;;;12.52;75.31
65384;BME280;51986;52.788;41.368;2022-09-23T06:18:59;98767.41;;;12.49;75.65
65384;BME280;51986;52.788;41.368;2022-09-23T06:21:33;98735.50;;;12.40;75.33
65384;BME280;51986;52.788;41.368;2022-09-23T06:24:04;98750.28;;;12.54;75.51
65384;BME280;51986;52.788;41.368;2022-09-23T06:26:32;98744.50;;;12.43;75.40
65384;BME280;51986;52.788;41.368;2022-09-23T06:29:00;98732.66;;;12.47;75.16
65384;BME280;51986;52.788;41.368;2022-09-23T06:31:28;98744.31;;;12.50;75.22
65384;BME280;51986;52.788;41.368;2022-09-23T06:33:55;98744.84;;;12.28;75.80
65384;BME280;51986;52.788;41.368;2022-09-23T06:36:36;98732.16;;;12.52;75.28
65384;BME280;51986;52.788;41.368;2022-09-23T06:39:11;98734.34;;;12.25;75.33
65384;BME280;51986;52.788;41.368;2022-09-23T06:41:38;98724.72;;;12.47;75.42
65384;BME280;51986;52.788;41.368;2022-09-23T06:44:11;98756.50;;;12.15;75.85
65384;BME280;51986;52.788;41.368;2022-09-23T06:46:38;98737.16;;;12.34;75.70
65384;BME280;51986;52.788;41.368;2022-09-23T06:49:05;98748.75;;;12.24;76.24
65384;BME280;51986;52.788;41.368;2022-09-23T06:51:32;98740.00;;;12.27;76.21
65384;BME280;51986;52.788;41.368;2022-09-23T06:53:59;98730.72;;;12.35;76.25
65384;BME280;51986;52.788;41.368;2022-09-23T06:56:26;98768.00;;;12.24;76.22
65384;BME280;51986;52.788;41.368;2022-09-23T06:58:53;98756.69;;;12.07;75.95
65384;BME280;51986;52.788;41.368;2022-09-23T07:01:23;98745.94;;;12.31;74.79
65384;BME280;51986;52.788;41.368;2022-09-23T07:03:49;98721.28;;;12.34;74.90
65384;BME280;51986;52.788;41.368;2022-09-23T07:06:17;98742.03;;;12.35;75.20
65384;BME280;51986;52.788;41.368;2022-09-23T07:08:45;98743.59;;;12.49;73.66
65384;BME280;51986;52.788;41.368;2022-09-23T07:11:12;98729.13;;;12.54;73.48
65384;BME280;51986;52.788;41.368;2022-09-23T07:13:40;98718.97;;;12.36;73.39
65384;BME280;51986;52.788;41.368;2022-09-23T07:16:09;98718.19;;;12.52;73.40
65384;BME280;51986;52.788;41.368;2022-09-23T07:18:37;98716.69;;;12.80;72.88
65384;BME280;51986;52.788;41.368;2022-09-23T07:23:35;98679.94;;;12.69;72.44
65384;BME280;51986;52.788;41.368;2022-09-23T07:26:28;98700.59;;;12.74;72.72
65384;BME280;51986;52.788;41.368;2022-09-23T07:28:55;98697.00;;;12.81;72.53
65384;BME280;51986;52.788;41.368;2022-09-23T07:31:22;98687.56;;;12.80;72.79
65384;BME280;51986;52.788;41.368;2022-09-23T07:34:02;98687.19;;;12.52;73.65
65384;BME280;51986;52.788;41.368;2022-09-23T07:36:29;98712.75;;;12.72;73.04
65384;BME280;51986;52.788;41.368;2022-09-23T07:38:56;98684.41;;;12.43;73.69
65384;BME280;51986;52.788;41.368;2022-09-23T07:41:26;98688.03;;;12.49;73.62
65384;BME280;51986;52.788;41.368;2022-09-23T07:43:54;98695.84;;;12.40;74.05
65384;BME280;51986;52.788;41.368;2022-09-23T07:46:22;98682.22;;;12.54;73.73
65384;BME280;51986;52.788;41.368;2022-09-23T07:48:48;98677.31;;;12.40;74.06
65384;BME280;51986;52.788;41.368;2022-09-23T07:51:18;98665.84;;;12.59;72.40
65384;BME280;51986;52.788;41.368;2022-09-23T07:53:46;98669.75;;;12.68;72.60
65384;BME280;51986;52.788;41.368;2022-09-23T07:56:14;98674.97;;;12.71;72.29
65384;BME280;51986;52.788;41.368;2022-09-23T07:58:41;98674.22;;;12.71;72.72
65384;BME280;51986;52.788;41.368;2022-09-23T08:01:10;98655.38;;;12.69;72.37
65384;BME280;51986;52.788;41.368;2022-09-23T08:03:38;98671.25;;;12.69;72.56
65384;BME280;51986;52.788;41.368;2022-09-23T08:06:10;98687.88;;;12.69;72.18
65384;BME280;51986;52.788;41.368;2022-09-23T08:08:39;98698.09;;;12.54;72.50
65384;BME280;51986;52.788;41.368;2022-09-23T08:11:11;98677.63;;;12.84;71.13
65384;BME280;51986;52.788;41.368;2022-09-23T08:13:38;98670.41;;;12.72;70.98
65384;BME280;51986;52.788;41.368;2022-09-23T08:16:05;98650.09;;;12.69;71.07
65384;BME280;51986;52.788;41.368;2022-09-23T08:18:58;98692.47;;;12.94;71.34
65384;BME280;51986;52.788;41.368;2022-09-23T08:21:25;98694.56;;;12.86;71.13
65384;BME280;51986;52.788;41.368;2022-09-23T08:23:52;98686.75;;;12.83;71.24
65384;BME280;51986;52.788;41.368;2022-09-23T08:26:19;98678.84;;;12.54;71.15
65384;BME280;51986;52.788;41.368;2022-09-23T08:28:49;98670.25;;;12.50;71.46
65384;BME280;51986;52.788;41.368;2022-09-23T08:31:16;98673.81;;;12.43;72.23
65384;BME280;51986;52.788;41.368;2022-09-23T08:33:43;98685.94;;;12.57;71.70
65384;BME280;51986;52.788;41.368;2022-09-23T08:36:10;98674.47;;;12.47;71.19
65384;BME280;51986;52.788;41.368;2022-09-23T08:38:37;98667.66;;;12.33;71.90
65384;BME280;51986;52.788;41.368;2022-09-23T08:43:47;98676.22;;;12.67;71.50
65384;BME280;51986;52.788;41.368;2022-09-23T08:46:58;98663.84;;;12.64;71.27
65384;BME280;51986;52.788;41.368;2022-09-23T08:50:27;98674.88;;;12.75;71.22
65384;BME280;51986;52.788;41.368;2022-09-23T08:55:14;98672.69;;;12.44;72.36
65384;BME280;51986;52.788;41.368;2022-09-23T08:57:57;98640.09;;;12.47;72.08
65384;BME280;51986;52.788;41.368;2022-09-23T09:03:47;98651.78;;;12.33;71.83
65384;BME280;51986;52.788;41.368;2022-09-23T09:08:53;98627.81;;;12.53;71.47
65384;BME280;51986;52.788;41.368;2022-09-23T09:11:26;98630.97;;;12.48;72.14
65384;BME280;51986;52.788;41.368;2022-09-23T09:14:10;98627.50;;;12.51;71.55
65384;BME280;51986;52.788;41.368;2022-09-23T09:16:59;98668.75;;;12.78;71.46
65384;BME280;51986;52.788;41.368;2022-09-23T09:19:55;98634.75;;;12.64;71.11
65384;BME280;51986;52.788;41.368;2022-09-23T09:22:43;98632.44;;;12.91;69.97
65384;BME280;51986;52.788;41.368;2022-09-23T09:25:44;98639.84;;;12.83;70.66
65384;BME280;51986;52.788;41.368;2022-09-23T09:33:49;98645.97;;;12.80;70.64
65384;BME280;51986;52.788;41.368;2022-09-23T09:36:31;98638.50;;;13.04;69.85
65384;BME280;51986;52.788;41.368;2022-09-23T09:39:02;98626.44;;;13.03;69.40
65384;BME280;51986;52.788;41.368;2022-09-23T09:41:29;98618.06;;;13.18;69.50
65384;BME280;51986;52.788;41.368;2022-09-23T09:43:58;98643.88;;;13.39;69.06
65384;BME280;51986;52.788;41.368;2022-09-23T09:46:45;98625.69;;;13.28;68.31
65384;BME280;51986;52.788;41.368;2022-09-23T09:49:40;98638.19;;;13.41;68.10
65384;BME280;51986;52.788;41.368;2022-09-23T09:54:44;98624.31;;;13.24;68.58
65384;BME280;51986;52.788;41.368;2022-09-23T09:57:29;98640.09;;;13.15;69.31
65384;BME280;51986;52.788;41.368;2022-09-23T10:02:55;98661.16;;;13.44;68.56
65384;BME280;51986;52.788;41.368;2022-09-23T10:08:31;98620.75;;;13.65;67.21
65384;BME280;51986;52.788;41.368;2022-09-23T10:11:04;98640.22;;;13.71;67.15
65384;BME280;51986;52.788;41.368;2022-09-23T10:13:31;98627.22;;;13.64;67.17
65384;BME280;51986;52.788;41.368;2022-09-23T10:16:02;98618.13;;;13.87;66.80
65384;BME280;51986;52.788;41.368;2022-09-23T10:18:38;98609.63;;;13.57;67.06
65384;BME280;51986;52.788;41.368;2022-09-23T10:21:35;98602.19;;;14.00;66.33
65384;BME280;51986;52.788;41.368;2022-09-23T10:24:05;98600.06;;;13.95;65.64
65384;BME280;51986;52.788;41.368;2022-09-23T10:26:33;98587.66;;;14.26;65.39
65384;BME280;51986;52.788;41.368;2022-09-23T10:29:02;98592.94;;;14.04;65.39
65384;BME280;51986;52.788;41.368;2022-09-23T10:31:36;98587.16;;;14.19;65.37
65384;BME280;51986;52.788;41.368;2022-09-23T10:34:26;98577.63;;;14.08;65.75
65384;BME280;51986;52.788;41.368;2022-09-23T10:37:12;98570.09;;;14.07;65.76
65384;BME280;51986;52.788;41.368;2022-09-23T10:39:40;98561.81;;;14.18;65.38
65384;BME280;51986;52.788;41.368;2022-09-23T10:42:21;98581.09;;;14.40;65.03
65384;BME280;51986;52.788;41.368;2022-09-23T10:47:35;98587.09;;;14.31;64.98
65384;BME280;51986;52.788;41.368;2022-09-23T10:52:59;98556.94;;;14.16;65.09
65384;BME280;51986;52.788;41.368;2022-09-23T11:00:45;98567.75;;;14.31;64.99
65384;BME280;51986;52.788;41.368;2022-09-23T11:31:07;98505.94;;;14.43;64.43
65384;BME280;51986;52.788;41.368;2022-09-23T11:38:50;98520.97;;;14.15;65.02
65384;BME280;51986;52.788;41.368;2022-09-23T11:41:27;98516.63;;;14.61;63.87
65384;BME280;51986;52.788;41.368;2022-09-23T11:46:41;98515.34;;;14.13;65.11
65384;BME280;51986;52.788;41.368;2022-09-23T11:52:02;98498.09;;;14.39;64.13
65384;BME280;51986;52.788;41.368;2022-09-23T11:55:02;98507.69;;;14.37;64.48
65384;BME280;51986;52.788;41.368;2022-09-23T11:57:50;98495.00;;;14.32;64.99
65384;BME280;51986;52.788;41.368;2022-09-23T12:00:44;98502.41;;;14.46;64.50
65384;BME280;51986;52.788;41.368;2022-09-23T12:03:52;98508.78;;;14.58;64.45
65384;BME280;51986;52.788;41.368;2022-09-23T12:06:54;98523.69;;;14.55;64.76
65384;BME280;51986;52.788;41.368;2022-09-23T12:09:31;98504.09;;;14.22;65.96
65384;BME280;51986;52.788;41.368;2022-09-23T12:20:41;98510.28;;;14.28;65.02
65384;BME280;51986;52.788;41.368;2022-09-23T12:23:41;98492.50;;;14.37;64.61
65384;BME280;51986;52.788;41.368;2022-09-23T12:26:19;98491.97;;;14.21;65.23
65384;BME280;51986;52.788;41.368;2022-09-23T12:28:50;98479.19;;;14.28;65.20
65384;BME280;51986;52.788;41.368;2022-09-23T12:31:21;98505.09;;;14.24;65.17
65384;BME280;51986;52.788;41.368;2022-09-23T12:33:52;98494.09;;;14.35;64.63
65384;BME280;51986;52.788;41.368;2022-09-23T12:36:29;98483.75;;;14.28;65.43
65384;BME280;51986;52.788;41.368;2022-09-23T12:39:13;98477.94;;;14.42;64.85
65384;BME280;51986;52.788;41.368;2022-09-23T12:41:46;98478.50;;;14.37;65.00
65384;BME280;51986;52.788;41.368;2022-09-23T12:49:48;98478.91;;;14.35;65.09
65384;BME280;51986;52.788;41.368;2022-09-23T12:54:46;98427.94;;;14.31;64.55
65384;BME280;51986;52.788;41.368;2022-09-23T13:07:34;98474.13;;;14.21;65.05
65384;BME280;51986;52.788;41.368;2022-09-23T13:10:26;98429.28;;;14.45;64.76
65384;BME280;51986;52.788;41.368;2022-09-23T13:13:27;98455.84;;;14.54;64.61
65384;BME280;51986;52.788;41.368;2022-09-23T13:26:56;98438.31;;;14.57;64.40
65384;BME280;51986;52.788;41.368;2022-09-23T13:32:20;98423.97;;;14.45;64.85
65384;BME280;51986;52.788;41.368;2022-09-23T13:35:03;98446.28;;;14.57;64.55
65384;BME280;51986;52.788;41.368;2022-09-23T13:37:40;98416.97;;;14.20;65.79
65384;BME280;51986;52.788;41.368;2022-09-23T13:43:01;98425.13;;;14.35;64.95
65384;BME280;51986;52.788;41.368;2022-09-23T13:45:39;98416.69;;;14.18;65.53
65384;BME280;51986;52.788;41.368;2022-09-23T13:48:11;98427.16;;;14.22;65.64
65384;BME280;51986;52.788;41.368;2022-09-23T13:50:44;98437.34;;;14.01;65.78
65384;BME280;51986;52.788;41.368;2022-09-23T13:53:19;98424.84;;;14.33;65.25
65384;BME280;51986;52.788;41.368;2022-09-23T13:55:59;98426.00;;;14.32;65.24
65384;BME280;51986;52.788;41.368;2022-09-23T13:58:28;98436.94;;;14.43;64.72
65384;BME280;51986;52.788;41.368;2022-09-23T14:00:56;98419.78;;;14.26;65.26
65384;BME280;51986;52.788;41.368;2022-09-23T14:03:29;98435.47;;;14.42;65.04
65384;BME280;51986;52.788;41.368;2022-09-23T14:06:09;98422.81;;;14.46;65.05
65384;BME280;51986;52.788;41.368;2022-09-23T14:08:56;98452.16;;;14.52;64.75
65384;BME280;51986;52.788;41.368;2022-09-23T14:11:31;98436.41;;;14.57;64.57
65384;BME280;51986;52.788;41.368;2022-09-23T14:14:00;98451.09;;;14.49;64.48
65384;BME280;51986;52.788;41.368;2022-09-23T14:16:28;98434.75;;;14.42;64.62
65384;BME280;51986;52.788;41.368;2022-09-23T14:18:58;98445.84;;;14.58;64.47
65384;BME280;51986;52.788;41.368;2022-09-23T14:21:32;98431.38;;;14.50;64.99
65384;BME280;51986;52.788;41.368;2022-09-23T14:26:37;98432.56;;;14.58;64.37
65384;BME280;51986;52.788;41.368;2022-09-23T14:29:12;98421.31;;;14.36;65.16
65384;BME280;51986;52.788;41.368;2022-09-23T14:31:44;98419.13;;;14.12;65.80
65384;BME280;51986;52.788;41.368;2022-09-23T14:34:44;98423.59;;;14.15;65.79
65384;BME280;51986;52.788;41.368;2022-09-23T14:39:49;98413.22;;;14.08;66.00
65384;BME280;51986;52.788;41.368;2022-09-23T14:43:01;98411.06;;;14.16;65.59
65384;BME280;51986;52.788;41.368;2022-09-23T14:45:34;98419.84;;;14.04;66.01
65384;BME280;51986;52.788;41.368;2022-09-23T14:48:07;98423.06;;;13.99;66.18
65384;BME280;51986;52.788;41.368;2022-09-23T14:50:45;98431.84;;;14.18;65.43
65384;BME280;51986;52.788;41.368;2022-09-23T14:58:29;98430.16;;;14.11;65.92
65384;BME280;51986;52.788;41.368;2022-09-23T15:03:49;98411.38;;;13.96;66.23
65384;BME280;51986;52.788;41.368;2022-09-23T15:06:38;98419.66;;;13.98;66.51
65384;BME280;51986;52.788;41.368;2022-09-23T15:09:06;98425.88;;;14.04;66.07
65384;BME280;51986;52.788;41.368;2022-09-23T15:11:34;98435.19;;;14.09;66.21
65384;BME280;51986;52.788;41.368;2022-09-23T15:14:02;98420.75;;;14.10;65.94
65384;BME280;51986;52.788;41.368;2022-09-23T15:16:51;98422.03;;;14.05;66.30
65384;BME280;51986;52.788;41.368;2022-09-23T15:19:21;98411.38;;;13.96;66.55
65384;BME280;51986;52.788;41.368;2022-09-23T15:21:51;98436.66;;;14.10;66.21
65384;BME280;51986;52.788;41.368;2022-09-23T15:24:39;98411.91;;;14.13;66.27
65384;BME280;51986;52.788;41.368;2022-09-23T15:27:10;98413.09;;;14.12;66.33
65384;BME280;51986;52.788;41.368;2022-09-23T15:29:37;98398.19;;;14.05;66.54
65384;BME280;51986;52.788;41.368;2022-09-23T15:32:04;98387.28;;;14.03;66.04
65384;BME280;51986;52.788;41.368;2022-09-23T15:34:32;98388.69;;;14.17;66.23
65384;BME280;51986;52.788;41.368;2022-09-23T15:37:12;98392.06;;;13.86;66.87
65384;BME280;51986;52.788;41.368;2022-09-23T15:39:39;98377.38;;;13.95;66.58
65384;BME280;51986;52.788;41.368;2022-09-23T15:42:07;98384.44;;;13.88;67.32
65384;BME280;51986;52.788;41.368;2022-09-23T15:44:35;98405.91;;;13.90;67.02
65384;BME280;51986;52.788;41.368;2022-09-23T15:47:03;98387.06;;;13.88;66.69
65384;BME280;51986;52.788;41.368;2022-09-23T15:52:00;98385.03;;;14.02;66.37
65384;BME280;51986;52.788;41.368;2022-09-23T15:54:28;98376.50;;;13.98;66.47
65384;BME280;51986;52.788;41.368;2022-09-23T15:59:57;98371.91;;;13.89;66.71
65384;BME280;51986;52.788;41.368;2022-09-23T16:02:24;98373.22;;;13.84;67.19
65384;BME280;51986;52.788;41.368;2022-09-23T16:04:51;98367.63;;;13.92;67.19
65384;BME280;51986;52.788;41.368;2022-09-23T16:07:18;98381.84;;;13.76;67.26
65384;BME280;51986;52.788;41.368;2022-09-23T16:09:45;98352.25;;;13.77;67.19
65384;BME280;51986;52.788;41.368;2022-09-23T16:12:12;98354.13;;;13.68;67.81
65384;BME280;51986;52.788;41.368;2022-09-23T16:14:39;98349.09;;;13.60;68.31
65384;BME280;51986;52.788;41.368;2022-09-23T16:17:14;98349.50;;;13.59;68.77
65384;BME280;51986;52.788;41.368;2022-09-23T16:19:41;98354.03;;;13.49;68.50
65384;BME280;51986;52.788;41.368;2022-09-23T16:22:26;98342.69;;;13.49;69.31
65384;BME280;51986;52.788;41.368;2022-09-23T16:24:54;98322.53;;;12.98;70.21